Time;durP1;ratioP1;P1;durP2;ratioP2;P2;SDS_P1;SDS_P2;PMS_P1;PMS_P2;Temp;Humidity;BMP_temperature;BMP_pressure;BME280_temperature;BME280_humidity;BME280_pressure;Samples;Min_cycle;Max_cycle;Signal;HPM_P1;HPM_P2
2021/12/05 00:23:42;;;;;;;;;1.00;1.00;;;;;6.74;62.94;99908.97;5066578;28;45263;-51
2021/12/05 00:26:12;;;;;;;;;4.25;1.00;;;;;6.72;62.99;99905.50;5053308;28;46940;-47
2021/12/05 00:29:06;;;;;;;;;0.00;0.00;;;;;6.73;63.07;99907.25;5066338;28;45235;-49
2021/12/05 00:34:27;;;;;;;;;1.00;1.00;;;;;6.72;63.20;99895.06;5066346;28;45896;-46
2021/12/05 00:47:54;;;;;;;;;2.00;0.75;;;;;6.70;62.88;99889.00;5064688;28;45307;-51
2021/12/05 00:56:07;;;;;;;;;1.00;1.00;;;;;6.69;63.13;99870.75;5065934;28;45323;-46
2021/12/05 01:07:12;;;;;;;;;0.25;0.25;;;;;6.68;63.13;99872.50;5066074;28;45292;-47
2021/12/05 01:17:37;;;;;;;;;3.00;1.00;;;;;6.72;63.01;99874.19;5065651;28;45227;-50
2021/12/05 01:20:10;;;;;;;;;1.00;1.00;;;;;6.74;62.91;99877.66;5065664;28;45262;-46
2021/12/05 01:22:42;;;;;;;;;2.00;0.50;;;;;6.75;63.01;99871.53;5061482;28;45178;-47
2021/12/05 01:28:30;;;;;;;;;0.00;0.00;;;;;6.81;63.06;99873.19;5010212;28;45366;-49
2021/12/05 01:31:46;;;;;;;;;1.75;0.00;;;;;6.81;63.09;99868.84;5073449;28;46402;-47
2021/12/05 01:36:40;;;;;;;;;1.50;0.50;;;;;6.85;63.19;99874.88;5062607;28;45378;-50
2021/12/05 01:42:24;;;;;;;;;2.00;0.50;;;;;6.81;63.17;99855.78;5061155;28;45808;-51
2021/12/05 01:52:49;;;;;;;;;0.00;0.00;;;;;6.75;63.03;99840.19;5062092;28;45460;-49
2021/12/05 02:09:09;;;;;;;;;1.00;0.00;;;;;6.77;63.40;99845.41;5062045;28;45399;-49
2021/12/05 02:36:45;;;;;;;;;0.25;0.00;;;;;6.63;63.18;99820.31;5061389;28;45856;-46
2021/12/05 02:39:17;;;;;;;;;0.00;0.00;;;;;6.64;63.38;99832.50;5061197;28;45584;-47
2021/12/05 02:41:46;;;;;;;;;1.75;0.75;;;;;6.60;63.31;99829.94;5061363;28;45236;-47
2021/12/05 02:44:21;;;;;;;;;1.00;1.00;;;;;6.61;63.30;99835.13;5060037;28;45350;-48
2021/12/05 02:46:58;;;;;;;;;1.00;1.00;;;;;6.59;63.25;99826.47;5060755;28;46098;-49
2021/12/05 02:49:25;;;;;;;;;1.00;1.00;;;;;6.56;63.13;99809.97;5061089;28;45345;-46
2021/12/05 02:51:56;;;;;;;;;2.00;1.00;;;;;6.57;63.31;99819.56;5061038;28;45624;-50
2021/12/05 02:54:23;;;;;;;;;1.00;1.00;;;;;6.56;63.45;99820.44;5061054;28;45405;-49
2021/12/05 02:56:51;;;;;;;;;1.00;1.00;;;;;6.55;63.14;99816.94;5060839;28;46191;-49
2021/12/05 03:02:11;;;;;;;;;1.00;1.00;;;;;6.55;63.08;99823.91;5060690;28;45313;-51
2021/12/05 03:04:41;;;;;;;;;1.00;0.00;;;;;6.55;63.32;99818.69;5060663;28;45246;-47
2021/12/05 03:07:09;;;;;;;;;0.00;0.00;;;;;6.54;63.13;99819.56;5060897;28;45381;-50
2021/12/05 03:09:36;;;;;;;;;0.00;0.00;;;;;6.55;63.10;99816.09;5060445;28;45326;-48
2021/12/05 03:12:02;;;;;;;;;0.75;0.75;;;;;6.53;63.14;99810.88;5060947;28;45308;-47
2021/12/05 03:14:28;;;;;;;;;1.00;1.00;;;;;6.53;63.24;99810.88;5060656;28;45542;-47
2021/12/05 03:16:54;;;;;;;;;1.00;1.00;;;;;6.54;63.20;99796.06;5060464;28;46723;-48
2021/12/05 03:19:19;;;;;;;;;1.00;0.25;;;;;6.53;63.11;99803.06;5060526;28;45170;-48
2021/12/05 03:21:47;;;;;;;;;0.00;0.00;;;;;6.54;63.28;99796.06;5060974;28;45462;-48
2021/12/05 03:24:15;;;;;;;;;0.00;0.00;;;;;6.52;63.37;99797.88;5060548;28;45338;-49
2021/12/05 03:26:45;;;;;;;;;0.00;0.00;;;;;6.50;63.49;99795.25;5060636;28;45406;-49
2021/12/05 03:29:13;;;;;;;;;1.00;0.00;;;;;6.50;63.18;99803.06;5060326;28;45479;-51
2021/12/05 03:31:39;;;;;;;;;0.00;0.00;;;;;6.50;63.27;99793.53;5060340;28;45326;-46
2021/12/05 03:34:07;;;;;;;;;0.75;0.75;;;;;6.49;63.10;99799.63;5059111;28;45343;-49
2021/12/05 03:36:34;;;;;;;;;0.00;0.00;;;;;6.52;63.21;99796.09;5060289;28;45319;-51
2021/12/05 03:39:03;;;;;;;;;1.00;0.00;;;;;6.52;63.13;99792.66;5060135;28;45156;-50
2021/12/05 03:41:29;;;;;;;;;2.50;1.25;;;;;6.50;63.13;99788.28;5060354;28;45308;-48
2021/12/05 03:43:55;;;;;;;;;0.50;0.00;;;;;6.49;63.01;99801.34;5059685;28;45340;-48
2021/12/05 03:46:22;;;;;;;;;0.00;0.00;;;;;6.48;63.22;99807.47;5059689;28;45556;-47
2021/12/05 03:48:56;;;;;;;;;0.00;0.00;;;;;6.45;63.15;99787.50;5060241;28;45380;-50
2021/12/05 03:51:23;;;;;;;;;0.00;0.00;;;;;6.39;63.28;99787.56;5060179;28;45221;-46
2021/12/05 03:53:50;;;;;;;;;0.00;0.00;;;;;6.38;63.27;99782.34;5060173;28;45464;-50
2021/12/05 03:56:16;;;;;;;;;0.75;0.75;;;;;6.37;63.32;99778.03;5059892;28;46392;-50
2021/12/05 03:58:43;;;;;;;;;0.00;0.00;;;;;6.36;63.25;99771.06;5060338;28;45376;-48
2021/12/05 04:01:11;;;;;;;;;0.00;0.00;;;;;6.33;63.23;99771.97;5060152;28;45310;-48
2021/12/05 04:03:37;;;;;;;;;0.00;0.00;;;;;6.30;63.15;99772.00;5058811;28;45266;-47
2021/12/05 04:06:04;;;;;;;;;0.00;0.00;;;;;6.29;63.21;99772.88;5059732;28;46979;-47
2021/12/05 04:08:30;;;;;;;;;0.00;0.00;;;;;6.27;63.17;99775.50;5058859;28;45945;-50
2021/12/05 04:11:05;;;;;;;;;0.00;0.00;;;;;6.25;63.32;99772.09;5059675;28;45323;-48
2021/12/05 04:13:31;;;;;;;;;0.00;0.00;;;;;6.23;63.06;99779.06;5060264;28;45306;-50
2021/12/05 04:16:00;;;;;;;;;0.00;0.00;;;;;6.23;63.11;99778.19;5059539;28;46298;-48
2021/12/05 04:18:26;;;;;;;;;0.50;0.50;;;;;6.22;63.35;99771.25;5059632;28;45247;-49
2021/12/05 04:20:52;;;;;;;;;1.50;1.00;;;;;6.20;63.16;99765.16;5058342;28;45349;-50
2021/12/05 04:23:18;;;;;;;;;0.00;0.00;;;;;6.16;63.17;99765.22;5059945;28;45244;-50
2021/12/05 04:25:47;;;;;;;;;1.50;0.50;;;;;6.15;63.29;99767.81;5059401;28;47922;-48
2021/12/05 04:28:13;;;;;;;;;0.00;0.00;;;;;6.12;63.32;99758.28;5058635;28;45948;-49
2021/12/05 04:30:39;;;;;;;;;1.00;1.00;;;;;6.12;63.64;99775.69;5054998;28;45404;-48
2021/12/05 04:33:05;;;;;;;;;2.00;0.00;;;;;6.08;63.55;99768.81;5051636;28;45458;-48
2021/12/05 04:35:30;;;;;;;;;0.00;0.00;;;;;6.08;63.43;99774.03;5058320;28;46138;-51
2021/12/05 04:37:56;;;;;;;;;1.50;1.50;;;;;6.07;63.42;99773.13;5059585;28;45263;-47
2021/12/05 04:40:21;;;;;;;;;0.00;0.00;;;;;6.01;63.32;99766.25;5059410;28;45245;-51
2021/12/05 04:42:47;;;;;;;;;0.00;0.00;;;;;6.03;63.22;99775.81;5059692;28;45271;-48
2021/12/05 04:45:23;;;;;;;;;0.50;0.00;;;;;6.00;63.39;99774.09;5059275;28;45413;-48
2021/12/05 04:47:49;;;;;;;;;0.00;0.00;;;;;5.97;63.39;99780.16;5059261;28;45295;-47
2021/12/05 04:50:17;;;;;;;;;1.25;0.50;;;;;5.95;63.45;99776.72;5059278;28;45426;-49
2021/12/05 04:52:43;;;;;;;;;2.50;0.25;;;;;5.97;63.36;99774.09;5059476;28;45294;-47
2021/12/05 04:55:10;;;;;;;;;0.00;0.00;;;;;5.96;63.34;99780.19;5059147;28;46101;-47
2021/12/05 04:57:36;;;;;;;;;1.25;0.50;;;;;5.96;63.36;99777.56;5062314;28;45228;-47
2021/12/05 05:00:11;;;;;;;;;0.25;0.25;;;;;5.95;63.30;99768.00;5061510;28;45346;-47
2021/12/05 05:02:36;;;;;;;;;0.00;0.00;;;;;5.94;63.46;99774.13;5058423;28;45434;-47
2021/12/05 05:05:02;;;;;;;;;0.00;0.00;;;;;5.96;63.40;99777.56;5062747;28;45263;-47
2021/12/05 05:07:28;;;;;;;;;0.25;0.00;;;;;5.98;63.15;99779.31;5062705;28;45267;-47
2021/12/05 05:10:01;;;;;;;;;0.50;0.50;;;;;5.98;63.20;99766.28;5062961;28;45310;-47
2021/12/05 05:12:27;;;;;;;;;1.50;0.00;;;;;5.97;63.49;99764.50;5042413;28;45828;-45
2021/12/05 05:14:53;;;;;;;;;0.00;0.00;;;;;5.99;63.40;99772.38;5061243;28;45486;-47
2021/12/05 05:17:19;;;;;;;;;0.00;0.00;;;;;5.98;63.09;99765.38;5062450;28;45321;-47
2021/12/05 05:19:50;;;;;;;;;0.00;0.00;;;;;5.98;63.19;99754.97;5062758;28;45370;-48
2021/12/05 05:49:30;;;;;;;;;1.00;1.00;;;;;5.89;63.35;99765.47;5062190;28;45260;-46
2021/12/05 05:51:56;;;;;;;;;0.00;0.00;;;;;5.86;63.36;99761.16;5060804;28;45382;-48
2021/12/05 05:54:21;;;;;;;;;0.25;0.25;;;;;5.86;63.28;99759.44;5061850;28;45480;-45
2021/12/05 05:56:48;;;;;;;;;1.75;0.00;;;;;5.83;63.15;99756.84;5060593;28;45331;-46
2021/12/05 05:59:23;;;;;;;;;0.75;0.00;;;;;5.86;63.10;99759.44;5061992;28;45339;-48
2021/12/05 06:04:13;;;;;;;;;0.00;0.00;;;;;5.90;63.29;99768.09;5061801;28;45307;-49
2021/12/05 06:06:39;;;;;;;;;1.50;1.00;;;;;5.91;63.43;99775.03;5060358;28;47084;-46
2021/12/05 06:09:04;;;;;;;;;0.00;0.00;;;;;5.94;63.17;99771.53;5061622;28;45260;-50
2021/12/05 06:11:29;;;;;;;;;1.25;0.25;;;;;5.95;63.25;99765.41;5062195;28;45678;-49
2021/12/05 06:13:55;;;;;;;;;3.00;2.00;;;;;5.94;63.25;99761.94;5060850;28;45348;-45
2021/12/05 06:16:20;;;;;;;;;1.00;0.00;;;;;5.91;63.20;99762.00;5061672;28;47806;-46
2021/12/05 06:18:47;;;;;;;;;1.00;1.00;;;;;5.89;63.24;99761.13;5060734;28;45391;-47
2021/12/05 06:21:16;;;;;;;;;1.00;1.00;;;;;5.92;63.41;99755.03;5061675;28;45258;-46
2021/12/05 06:23:42;;;;;;;;;0.00;0.00;;;;;5.91;63.43;99751.56;5061481;28;45541;-47
2021/12/05 06:26:11;;;;;;;;;0.00;0.00;;;;;5.93;63.64;99746.31;5061630;28;45405;-48
2021/12/05 06:28:43;;;;;;;;;0.75;0.75;;;;;5.91;63.27;99742.84;5061273;28;45295;-45
2021/12/05 06:46:42;;;;;;;;;0.00;0.00;;;;;5.95;63.45;99754.97;5060752;28;45337;-49
2021/12/05 06:49:08;;;;;;;;;0.00;0.00;;;;;5.96;63.54;99754.97;5061130;28;45229;-49
2021/12/05 06:51:33;;;;;;;;;0.00;0.00;;;;;5.98;63.28;99754.97;5076817;28;45811;-50
2021/12/05 06:53:59;;;;;;;;;1.75;0.00;;;;;5.98;63.49;99744.53;5061042;28;45329;-50
2021/12/05 06:56:25;;;;;;;;;0.00;0.00;;;;;6.00;63.47;99748.88;5060912;28;46165;-48
2021/12/05 06:58:51;;;;;;;;;1.00;0.00;;;;;6.02;63.46;99754.06;5061089;28;45359;-46
2021/12/05 07:01:17;;;;;;;;;0.50;0.50;;;;;5.99;63.44;99741.06;5059297;28;45420;-47
2021/12/05 07:03:46;;;;;;;;;0.00;0.00;;;;;6.04;63.49;99736.66;5060705;28;45311;-47
2021/12/05 07:06:21;;;;;;;;;1.00;0.75;;;;;6.05;63.44;99741.00;5060700;28;47231;-47
2021/12/05 07:08:46;;;;;;;;;2.75;1.75;;;;;6.03;63.65;99737.53;5059561;28;45278;-46
2021/12/05 07:11:26;;;;;;;;;0.50;0.00;;;;;5.99;63.51;99746.28;5060771;28;45214;-46
2021/12/05 07:16:50;;;;;;;;;1.50;0.25;;;;;5.94;63.91;99768.91;5049110;28;45429;-47
2021/12/05 07:19:35;;;;;;;;;3.00;1.75;;;;;5.85;63.76;99752.47;5059725;28;45318;-48
2021/12/05 07:22:13;;;;;;;;;4.00;1.00;;;;;5.93;63.99;99761.97;5060597;28;45461;-49
2021/12/05 07:25:02;;;;;;;;;2.00;2.00;;;;;5.93;63.89;99762.81;5048596;28;45299;-48
2021/12/05 07:40:53;;;;;;;;;3.00;1.00;;;;;5.82;64.70;99770.78;5060234;28;45319;-49
2021/12/05 07:43:18;;;;;;;;;0.00;0.00;;;;;5.83;64.53;99762.06;5060400;28;45330;-49
2021/12/05 07:45:54;;;;;;;;;0.75;0.50;;;;;5.86;64.36;99761.16;5060259;28;45550;-51
2021/12/05 07:48:26;;;;;;;;;1.00;1.00;;;;;5.86;64.39;99768.97;5059980;28;45438;-48
2021/12/05 07:51:10;;;;;;;;;1.00;1.00;;;;;5.86;64.43;99762.03;5060208;28;45371;-49
2021/12/05 07:56:18;;;;;;;;;2.00;2.00;;;;;5.90;64.59;99762.00;5060160;28;45233;-48
2021/12/05 07:58:59;;;;;;;;;0.25;0.00;;;;;5.90;64.33;99760.25;5060275;28;46185;-48
2021/12/05 08:15:17;;;;;;;;;1.00;1.00;;;;;6.00;64.65;99774.97;5060131;28;45359;-50
2021/12/05 08:17:51;;;;;;;;;1.00;1.00;;;;;6.02;64.74;99772.31;5059580;28;45323;-50
2021/12/05 08:20:19;;;;;;;;;2.00;2.00;;;;;6.01;64.61;99770.59;5059837;28;46881;-48
2021/12/05 08:22:45;;;;;;;;;3.25;2.00;;;;;5.98;64.68;99765.38;5059806;28;45353;-48
2021/12/05 08:25:12;;;;;;;;;1.00;1.00;;;;;5.99;64.95;99762.78;5059968;28;45282;-46
2021/12/05 08:27:47;;;;;;;;;1.75;1.75;;;;;6.03;64.74;99771.44;5059991;28;45276;-47
2021/12/05 08:30:18;;;;;;;;;3.00;3.00;;;;;6.04;64.90;99769.69;5060219;28;46882;-50
2021/12/05 09:08:24;;;;;;;;;5.75;3.00;;;;;6.12;65.33;99780.91;5062918;28;45291;-48
2021/12/05 09:20:11;;;;;;;;;4.50;1.25;;;;;6.27;65.41;99787.72;5062674;28;45438;-51
2021/12/05 09:22:50;;;;;;;;;3.00;2.00;;;;;6.43;64.98;99797.06;5062455;28;45213;-49
2021/12/05 09:27:52;;;;;;;;;2.50;2.50;;;;;6.49;65.22;99799.63;5062369;28;45338;-47
2021/12/05 10:09:05;;;;;;;;;2.00;1.25;;;;;7.52;65.82;99819.06;5061556;28;45372;-47
2021/12/05 10:11:41;;;;;;;;;5.50;1.75;;;;;7.57;65.94;99815.50;5049147;28;45520;-51
2021/12/05 10:38:21;;;;;;;;;2.00;2.00;;;;;7.82;66.03;99799.34;5061358;28;45323;-51
2021/12/05 10:41:19;;;;;;;;;4.00;4.00;;;;;7.88;65.82;99804.47;5060996;28;47157;-51
2021/12/05 10:43:49;;;;;;;;;3.00;3.00;;;;;7.95;65.98;99811.34;5061035;28;45350;-47
2021/12/05 10:46:19;;;;;;;;;3.00;1.00;;;;;7.98;65.92;99824.34;5056282;28;45306;-48
2021/12/05 10:48:47;;;;;;;;;2.00;1.75;;;;;8.09;66.09;99812.84;5047552;28;45318;-47
2021/12/05 10:51:21;;;;;;;;;3.00;2.50;;;;;8.14;65.97;99814.47;5059716;28;46960;-47
2021/12/05 10:54:00;;;;;;;;;2.50;2.50;;;;;8.24;66.03;99809.94;5059827;28;45231;-50
2021/12/05 10:56:26;;;;;;;;;0.75;0.00;;;;;8.31;65.98;99810.66;5060989;28;45357;-47
2021/12/05 10:58:58;;;;;;;;;2.00;2.00;;;;;8.37;66.12;99807.06;5061025;28;45318;-54
2021/12/05 11:01:47;;;;;;;;;5.25;5.00;;;;;8.43;66.10;99802.56;5060599;28;46603;-47
2021/12/05 11:04:17;;;;;;;;;6.50;5.00;;;;;8.48;65.91;99799.00;5060420;28;45310;-48
2021/12/05 11:07:05;;;;;;;;;3.00;3.00;;;;;8.51;65.76;99789.34;5061005;28;45212;-48
2021/12/05 11:09:35;;;;;;;;;2.25;2.00;;;;;8.53;66.04;99797.16;5060458;28;45504;-48
2021/12/05 11:12:12;;;;;;;;;3.25;3.00;;;;;8.57;65.67;99798.84;5059459;28;47741;-48
2021/12/05 11:14:40;;;;;;;;;4.75;3.75;;;;;8.57;65.76;99802.31;5060674;28;45180;-51
2021/12/05 11:17:14;;;;;;;;;5.50;3.00;;;;;8.57;65.58;99786.59;5060543;28;45489;-50
2021/12/05 11:19:45;;;;;;;;;4.00;3.00;;;;;8.56;65.42;99789.25;5060744;28;45393;-49
2021/12/05 11:22:17;;;;;;;;;2.00;2.00;;;;;8.56;65.41;99789.25;5059245;28;46302;-50
2021/12/05 11:24:50;;;;;;;;;5.50;1.00;;;;;8.50;65.38;99782.38;5060501;28;45429;-49
2021/12/05 11:27:21;;;;;;;;;8.50;4.75;;;;;8.51;65.56;99780.63;5060629;28;45333;-49
2021/12/05 11:29:46;;;;;;;;;2.25;1.00;;;;;8.49;65.50;99791.16;5060679;28;45407;-49
2021/12/05 11:32:33;;;;;;;;;5.25;3.50;;;;;8.43;65.54;99783.38;5060017;28;46184;-50
2021/12/05 11:34:58;;;;;;;;;4.75;3.75;;;;;8.41;65.33;99787.78;5060466;28;45201;-48
2021/12/05 11:37:23;;;;;;;;;4.25;3.50;;;;;8.39;65.50;99782.59;5060701;28;45166;-50
2021/12/05 11:39:50;;;;;;;;;4.50;4.25;;;;;8.38;65.18;99780.00;5060239;28;45498;-49
2021/12/05 11:42:19;;;;;;;;;4.75;3.00;;;;;8.37;65.33;99778.28;5058965;28;46991;-51
2021/12/05 11:44:46;;;;;;;;;4.00;4.00;;;;;8.34;65.37;99773.09;5060278;28;45386;-51
2021/12/05 11:47:18;;;;;;;;;5.75;4.75;;;;;8.33;65.22;99772.22;5060010;28;45368;-48
2021/12/05 11:49:44;;;;;;;;;4.75;3.50;;;;;8.28;65.45;99777.56;5058855;28;45656;-46
2021/12/05 11:52:10;;;;;;;;;2.25;2.00;;;;;8.23;65.23;99771.56;5060016;28;45935;-50
2021/12/05 11:54:50;;;;;;;;;4.25;2.00;;;;;8.22;65.15;99774.22;5060008;28;45261;-48
2021/12/05 11:57:25;;;;;;;;;4.00;2.50;;;;;8.17;65.62;99773.44;5060533;28;45434;-51
2021/12/05 12:00:14;;;;;;;;;2.00;2.00;;;;;8.13;65.54;99786.56;5058537;28;45438;-48
2021/12/05 12:02:40;;;;;;;;;1.00;1.00;;;;;8.07;65.37;99781.44;5059532;28;47004;-48
2021/12/05 12:05:14;;;;;;;;;1.00;1.00;;;;;8.04;65.57;99778.91;5059615;28;45280;-47
2021/12/05 12:08:02;;;;;;;;;3.00;3.00;;;;;8.01;65.04;99792.03;5060147;28;45291;-51
2021/12/05 12:10:32;;;;;;;;;2.75;2.75;;;;;8.01;65.22;99802.50;5059839;28;45209;-50
2021/12/05 12:12:59;;;;;;;;;3.75;2.00;;;;;7.97;65.52;99808.69;5059709;28;46177;-51
2021/12/05 12:15:27;;;;;;;;;4.00;0.00;;;;;7.90;65.31;99807.06;5058732;28;45490;-51
2021/12/05 12:17:57;;;;;;;;;1.50;1.50;;;;;7.91;65.08;99817.53;5058358;28;45291;-52
2021/12/05 12:20:26;;;;;;;;;0.25;0.00;;;;;7.87;64.96;99828.91;5058427;28;45376;-51
2021/12/05 12:22:55;;;;;;;;;0.50;0.50;;;;;7.86;64.84;99818.47;5059843;28;45419;-49
2021/12/05 12:25:26;;;;;;;;;0.25;0.25;;;;;7.84;64.97;99815.03;5059680;28;45566;-47
2021/12/05 12:27:51;;;;;;;;;0.00;0.00;;;;;7.81;64.80;99815.94;5060070;28;45228;-49
2021/12/05 12:30:24;;;;;;;;;1.00;1.00;;;;;7.78;65.09;99809.00;5059503;28;45525;-49
2021/12/05 12:32:54;;;;;;;;;2.00;2.00;;;;;7.78;64.87;99814.25;5059624;28;45521;-48
2021/12/05 12:35:26;;;;;;;;;1.75;1.00;;;;;7.75;64.78;99818.69;5059571;28;45332;-46
2021/12/05 12:38:17;;;;;;;;;12.25;10.50;;;;;7.73;64.88;99821.31;5058569;28;45535;-47
2021/12/05 12:40:56;;;;;;;;;1.25;1.25;;;;;7.70;64.89;99823.09;5059445;28;45471;-48
2021/12/05 12:43:53;;;;;;;;;1.00;1.00;;;;;7.72;64.91;99818.72;5059486;28;45237;-49
2021/12/05 12:46:41;;;;;;;;;1.00;1.00;;;;;7.69;64.96;99824.03;5059187;28;45184;-51
2021/12/05 12:49:15;;;;;;;;;1.00;1.00;;;;;7.67;64.94;99837.09;5048132;28;45264;-50
2021/12/05 12:51:43;;;;;;;;;3.25;2.00;;;;;7.62;64.99;99837.19;5059318;28;45508;-50
2021/12/05 12:54:14;;;;;;;;;0.25;0.25;;;;;7.61;64.91;99840.69;5059435;28;45469;-47
2021/12/05 12:56:58;;;;;;;;;1.25;1.25;;;;;7.59;64.77;99842.47;5059350;28;45453;-49
2021/12/05 12:59:29;;;;;;;;;7.00;1.00;;;;;7.58;64.70;99840.72;5059436;28;45296;-45
2021/12/05 13:02:27;;;;;;;;;1.00;1.00;;;;;7.58;64.68;99842.50;5058942;28;45538;-49
2021/12/05 13:10:26;;;;;;;;;0.00;0.00;;;;;7.55;64.47;99839.94;5059403;28;45458;-49
2021/12/05 13:12:58;;;;;;;;;1.50;1.50;;;;;7.53;64.98;99844.31;5059135;28;45360;-47
2021/12/05 13:15:35;;;;;;;;;1.25;1.25;;;;;7.54;64.74;99852.13;5059319;28;46186;-48
2021/12/05 13:18:04;;;;;;;;;2.50;2.25;;;;;7.53;64.86;99849.53;5059606;28;45244;-45
2021/12/05 13:20:56;;;;;;;;;3.50;3.00;;;;;7.55;64.54;99861.72;5062520;28;45330;-49
2021/12/05 13:23:28;;;;;;;;;3.00;3.00;;;;;7.57;64.67;99852.09;5078228;28;45351;-46
2021/12/05 13:25:59;;;;;;;;;3.00;3.00;;;;;7.59;64.61;99858.16;5077751;28;48145;-49
2021/12/05 13:28:30;;;;;;;;;1.25;1.00;;;;;7.61;64.84;99858.13;5062419;28;45296;-49
2021/12/05 13:30:56;;;;;;;;;3.00;3.00;;;;;7.53;64.69;99844.31;5062135;28;45386;-50
2021/12/05 13:33:28;;;;;;;;;4.75;4.50;;;;;7.63;64.91;99859.84;5062309;28;45529;-50
2021/12/05 13:35:58;;;;;;;;;2.00;2.00;;;;;7.67;64.73;99862.41;5062190;28;45305;-47
2021/12/05 13:38:29;;;;;;;;;3.00;1.00;;;;;7.70;64.74;99871.06;5060911;28;45319;-49
2021/12/05 13:40:56;;;;;;;;;5.00;5.00;;;;;7.71;64.81;99854.50;5062240;28;45243;-47
2021/12/05 13:43:28;;;;;;;;;3.00;2.00;;;;;7.77;64.84;99862.22;5062143;28;45343;-51
2021/12/05 13:45:57;;;;;;;;;2.00;2.00;;;;;7.77;65.20;99863.97;5043727;28;46258;-47
2021/12/05 13:48:27;;;;;;;;;4.75;2.75;;;;;7.79;65.00;99860.44;5062036;28;45439;-46
2021/12/05 13:50:56;;;;;;;;;4.50;2.50;;;;;7.86;64.93;99873.41;5060973;28;45236;-50
2021/12/05 13:53:28;;;;;;;;;4.00;4.00;;;;;7.90;64.72;99882.94;5061938;28;45303;-48
2021/12/05 13:55:54;;;;;;;;;3.00;3.00;;;;;7.93;64.79;99882.91;5062092;28;46611;-48
2021/12/05 13:58:25;;;;;;;;;3.00;3.00;;;;;7.97;64.76;99884.56;5061853;28;45383;-49
2021/12/05 14:01:03;;;;;;;;;48.25;39.75;;;;;8.00;64.83;99887.13;5061733;28;45343;-49
2021/12/05 14:03:37;;;;;;;;;26.50;23.25;;;;;8.05;64.78;99885.31;5061898;28;45339;-46
2021/12/05 14:06:03;;;;;;;;;19.75;18.00;;;;;8.06;64.78;99897.50;5061605;28;45227;-51
2021/12/05 14:08:29;;;;;;;;;4.50;4.00;;;;;8.11;64.67;99897.41;5061813;28;45330;-49
2021/12/05 14:10:54;;;;;;;;;16.75;14.00;;;;;8.14;64.63;99897.38;5061775;28;45449;-47
2021/12/05 14:13:21;;;;;;;;;10.75;10.75;;;;;8.16;64.90;99900.81;5061884;28;45248;-51
2021/12/05 14:15:55;;;;;;;;;9.00;9.00;;;;;8.17;64.61;99894.69;5061311;28;45335;-49
2021/12/05 14:18:20;;;;;;;;;4.00;4.00;;;;;8.19;65.04;99899.88;5061992;28;45461;-51
2021/12/05 14:20:46;;;;;;;;;8.50;8.00;;;;;8.21;64.90;99911.19;5061451;28;45426;-48
2021/12/05 14:23:19;;;;;;;;;5.00;3.50;;;;;8.20;64.75;99899.88;5062018;28;45359;-48
2021/12/05 14:25:45;;;;;;;;;4.75;2.50;;;;;8.20;64.89;99917.31;5061363;28;46273;-48
2021/12/05 14:28:10;;;;;;;;;3.25;3.00;;;;;8.20;65.07;99917.31;5061344;28;45441;-49
2021/12/05 14:30:38;;;;;;;;;2.75;2.75;;;;;8.19;65.05;99918.19;5061456;28;45598;-46
2021/12/05 14:33:03;;;;;;;;;3.25;3.25;;;;;8.21;64.92;99921.66;5060225;28;45367;-47
2021/12/05 14:35:39;;;;;;;;;4.00;4.00;;;;;8.19;64.87;99921.69;5061229;28;46474;-47
2021/12/05 14:38:06;;;;;;;;;5.50;5.50;;;;;8.24;64.50;99927.72;5061597;28;45478;-49
2021/12/05 14:40:34;;;;;;;;;4.00;4.00;;;;;8.25;64.61;99931.19;5059766;28;45251;-51
2021/12/05 14:43:04;;;;;;;;;12.00;9.75;;;;;8.27;64.60;99935.50;5061168;28;45298;-50
2021/12/05 14:45:36;;;;;;;;;4.50;4.50;;;;;8.28;64.41;99920.69;5061039;28;47391;-47
2021/12/05 14:48:02;;;;;;;;;3.75;3.75;;;;;8.30;64.77;99934.56;5061256;28;45331;-50
2021/12/05 14:50:31;;;;;;;;;4.00;4.00;;;;;8.29;64.64;99932.88;5061263;28;45328;-51
2021/12/05 14:53:02;;;;;;;;;4.50;4.25;;;;;8.30;64.66;99940.69;5059938;28;45285;-45
2021/12/05 14:55:31;;;;;;;;;6.75;4.25;;;;;8.29;64.45;99938.97;5059514;28;45631;-46
2021/12/05 14:57:59;;;;;;;;;6.25;3.25;;;;;8.29;64.81;99938.97;5059662;28;45257;-46
2021/12/05 15:00:32;;;;;;;;;6.50;4.75;;;;;8.33;64.69;99949.38;5059776;28;45294;-47
2021/12/05 15:03:09;;;;;;;;;5.00;5.00;;;;;8.33;64.57;99946.75;5060651;28;45240;-48
2021/12/05 15:05:37;;;;;;;;;1.25;1.25;;;;;8.34;64.83;99959.84;5060748;28;46423;-46
2021/12/05 15:08:07;;;;;;;;;6.50;6.00;;;;;8.36;64.37;99957.19;5060649;28;45407;-48
2021/12/05 15:10:33;;;;;;;;;4.25;4.25;;;;;8.38;64.56;99958.03;5059580;28;45316;-47
2021/12/05 15:12:59;;;;;;;;;4.75;4.25;;;;;8.35;64.61;99965.94;5060810;28;45484;-50
2021/12/05 15:15:26;;;;;;;;;4.75;3.00;;;;;8.38;64.45;99971.13;5060807;28;46242;-47
2021/12/05 15:17:54;;;;;;;;;4.50;4.00;;;;;8.38;65.07;99968.50;5059502;28;45485;-48
2021/12/05 15:20:21;;;;;;;;;3.50;3.50;;;;;8.37;64.88;99970.25;5060602;28;45292;-51
2021/12/05 15:22:54;;;;;;;;;5.00;3.50;;;;;8.38;64.83;99981.59;5060745;28;45474;-49
2021/12/05 15:25:24;;;;;;;;;4.00;3.00;;;;;8.38;64.61;99977.22;5060441;28;45387;-48
2021/12/05 15:27:50;;;;;;;;;5.25;5.25;;;;;8.39;64.81;99984.19;5059287;28;45286;-50
2021/12/05 15:30:21;;;;;;;;;6.75;4.75;;;;;8.42;64.70;99998.97;5060759;28;45312;-48
2021/12/05 15:32:52;;;;;;;;;5.25;4.00;;;;;8.43;64.84;100003.31;5059360;28;45268;-50
2021/12/05 15:35:18;;;;;;;;;6.00;4.00;;;;;8.44;64.98;100011.16;5060307;28;45344;-47
2021/12/05 15:37:53;;;;;;;;;6.00;4.25;;;;;8.43;64.65;100005.94;5060531;28;45296;-48
2021/12/05 15:40:20;;;;;;;;;4.00;4.00;;;;;8.42;64.86;100012.06;5059493;28;45373;-49
2021/12/05 15:42:47;;;;;;;;;4.00;4.00;;;;;8.43;64.96;100019.03;5059161;28;45711;-50
2021/12/05 15:45:16;;;;;;;;;5.00;5.00;;;;;8.42;64.85;100020.78;5060151;28;45267;-51
2021/12/05 15:47:46;;;;;;;;;5.00;5.00;;;;;8.42;65.06;100028.63;5059831;28;45359;-49
2021/12/05 15:50:17;;;;;;;;;5.00;4.25;;;;;8.42;64.96;100033.00;5060193;28;45282;-47
2021/12/05 15:52:45;;;;;;;;;8.25;6.25;;;;;8.43;64.78;100039.97;5075839;28;45423;-51
2021/12/05 15:55:17;;;;;;;;;5.25;5.25;;;;;8.42;64.74;100039.09;5059819;28;45427;-50
2021/12/05 15:57:48;;;;;;;;;7.50;6.00;;;;;8.43;64.63;100055.69;5060043;28;45354;-53
2021/12/05 16:00:30;;;;;;;;;9.25;5.75;;;;;8.43;64.57;100050.47;5060216;28;45458;-52
2021/12/05 16:02:57;;;;;;;;;7.25;6.00;;;;;8.43;64.82;100053.94;5059677;28;45516;-50
2021/12/05 16:05:24;;;;;;;;;6.75;6.50;;;;;8.44;64.48;100053.03;5059972;28;46127;-49
2021/12/05 16:07:51;;;;;;;;;3.25;3.25;;;;;8.36;65.27;100054.91;5060034;28;45242;-47
2021/12/05 16:10:22;;;;;;;;;6.50;6.50;;;;;8.45;64.81;100070.50;5059973;28;45410;-50
2021/12/05 16:12:51;;;;;;;;;9.50;8.00;;;;;8.46;64.80;100081.84;5059913;28;45169;-47
2021/12/05 16:15:19;;;;;;;;;9.50;7.75;;;;;8.47;64.73;100091.44;5059864;28;46376;-49
2021/12/05 16:17:57;;;;;;;;;9.25;8.00;;;;;8.48;64.98;100093.16;5059631;28;45414;-48
2021/12/05 16:20:35;;;;;;;;;8.00;8.00;;;;;8.48;64.62;100090.56;5058527;28;45231;-48
2021/12/05 16:23:19;;;;;;;;;6.25;5.00;;;;;8.48;64.80;100101.03;5059953;28;45260;-50
2021/12/05 16:26:09;;;;;;;;;6.25;5.75;;;;;8.47;64.83;100103.69;5059420;28;46142;-47
2021/12/05 16:28:58;;;;;;;;;6.25;5.00;;;;;8.47;64.65;100112.38;5059719;28;45371;-47
2021/12/05 16:31:33;;;;;;;;;6.00;6.00;;;;;8.47;64.60;100115.00;5059523;28;45438;-49
2021/12/05 16:34:04;;;;;;;;;7.25;4.75;;;;;8.47;64.66;100124.63;5059561;28;45581;-48
2021/12/05 16:36:33;;;;;;;;;9.50;7.00;;;;;8.45;64.80;100122.84;5059755;28;48282;-47
2021/12/05 16:39:09;;;;;;;;;6.00;6.00;;;;;8.47;64.50;100124.63;5059473;28;45230;-46
2021/12/05 16:41:35;;;;;;;;;6.75;6.50;;;;;8.45;64.73;100121.97;5059716;28;45305;-46
2021/12/05 16:44:04;;;;;;;;;6.75;5.25;;;;;8.47;64.85;100133.34;5059874;28;45307;-47
2021/12/05 16:46:52;;;;;;;;;4.00;4.00;;;;;8.47;64.98;100142.97;5059179;28;46314;-51
2021/12/05 16:49:21;;;;;;;;;5.75;5.00;;;;;8.46;64.69;100144.69;5058274;28;45260;-47
2021/12/05 16:52:04;;;;;;;;;5.25;4.75;;;;;8.47;64.85;100140.34;5059604;28;45257;-49
2021/12/05 16:54:44;;;;;;;;;5.00;5.00;;;;;8.44;64.62;100143.84;5062878;28;45466;-47
2021/12/05 16:57:17;;;;;;;;;5.25;4.00;;;;;8.45;64.78;100150.78;5063082;28;46268;-47
2021/12/05 16:59:57;;;;;;;;;4.00;4.00;;;;;8.45;64.63;100156.91;5062618;28;45280;-48
2021/12/05 17:02:30;;;;;;;;;10.25;9.25;;;;;8.48;64.55;100170.84;5062538;28;45461;-47
2021/12/05 17:05:06;;;;;;;;;4.00;4.00;;;;;8.45;64.40;100170.00;5062938;28;45648;-48
2021/12/05 17:07:38;;;;;;;;;4.50;4.50;;;;;8.47;64.20;100172.63;5062555;28;45380;-46